createdAt,value
2022-12-11T00:00:56.843Z,99526.06
2022-12-11T00:03:43.380Z,99524.34
2022-12-11T00:06:14.914Z,99519.25
2022-12-11T00:08:43.050Z,99518.34
2022-12-11T00:11:13.527Z,99519.16
2022-12-11T00:13:41.491Z,99519.19
2022-12-11T00:16:09.782Z,99528.81
2022-12-11T00:18:38.037Z,99525.28
2022-12-11T00:21:08.675Z,99533.00
2022-12-11T00:23:37.083Z,99521.06
2022-12-11T00:26:14.045Z,99523.66
2022-12-11T00:28:42.728Z,99514.28
2022-12-11T00:31:16.046Z,99518.53
2022-12-11T00:33:45.279Z,99529.69
2022-12-11T00:36:15.141Z,99521.13
2022-12-11T00:38:43.740Z,99526.28
2022-12-11T00:41:12.602Z,99526.28
2022-12-11T00:43:40.860Z,99525.38
2022-12-11T00:46:08.718Z,99522.00
2022-12-11T00:48:36.807Z,99518.56
2022-12-11T00:51:04.925Z,99516.84
2022-12-11T00:53:33.415Z,99506.56
2022-12-11T00:56:01.321Z,99508.22
2022-12-11T00:58:29.333Z,99510.81
2022-12-11T01:01:17.207Z,99509.06
2022-12-11T01:03:45.674Z,99514.25
2022-12-11T01:06:18.451Z,99513.31
2022-12-11T01:08:46.855Z,99523.66
2022-12-11T01:11:16.736Z,99513.34
2022-12-11T01:13:44.773Z,99515.81
2022-12-11T01:16:16.017Z,99511.53
2022-12-11T01:18:44.836Z,99513.97
2022-12-11T01:21:13.945Z,99516.78
2022-12-11T01:23:42.229Z,99518.50
2022-12-11T01:26:12.697Z,99518.53
2022-12-11T01:28:42.055Z,99514.22
2022-12-11T01:31:14.617Z,99502.22
2022-12-11T01:33:42.980Z,99490.28
2022-12-11T01:36:16.056Z,99488.56
2022-12-11T01:38:44.870Z,99479.16
2022-12-11T01:41:13.124Z,99472.31
2022-12-11T01:43:57.144Z,99465.53
2022-12-11T01:46:25.380Z,99475.84
2022-12-11T01:48:54.030Z,99474.00
2022-12-11T01:51:22.635Z,99468.97
2022-12-11T01:53:59.199Z,99472.31
2022-12-11T01:56:27.577Z,99462.91
2022-12-11T01:59:00.317Z,99460.34
2022-12-11T02:01:57.364Z,99460.28
2022-12-11T02:04:25.974Z,99453.50
2022-12-11T02:06:54.609Z,99447.56
2022-12-11T02:09:27.164Z,99451.84
2022-12-11T02:12:11.996Z,99444.13
2022-12-11T02:15:02.923Z,99439.78
2022-12-11T02:17:46.777Z,99437.22
2022-12-11T02:20:54.298Z,99433.06
2022-12-11T02:23:54.637Z,99436.44
2022-12-11T02:26:38.081Z,99427.03
2022-12-11T02:29:37.797Z,99427.06
2022-12-11T02:32:16.474Z,99429.56
2022-12-11T02:34:55.519Z,99433.88
2022-12-11T02:37:28.294Z,99433.88
2022-12-11T02:39:57.603Z,99421.91
2022-12-11T02:42:30.699Z,99426.22
2022-12-11T02:45:01.150Z,99421.03
2022-12-11T02:47:32.130Z,99426.16
2022-12-11T02:50:02.488Z,99418.47
2022-12-11T02:52:32.639Z,99420.16
2022-12-11T02:55:03.113Z,99419.28
2022-12-11T02:57:44.518Z,99421.00
2022-12-11T03:00:13.084Z,99418.41
2022-12-11T03:02:42.338Z,99425.22
2022-12-11T03:05:13.130Z,99414.06
2022-12-11T03:07:43.830Z,99418.47
2022-12-11T03:10:15.495Z,99417.59
2022-12-11T03:12:53.066Z,99416.75
2022-12-11T03:15:30.320Z,99419.34
2022-12-11T03:18:41.364Z,99418.50
2022-12-11T03:21:19.380Z,99422.78
2022-12-11T03:24:08.667Z,99427.91
2022-12-11T03:26:56.674Z,99431.34
2022-12-11T03:29:35.512Z,99435.63
2022-12-11T03:32:19.963Z,99438.22
2022-12-11T03:35:08.756Z,99431.34
2022-12-11T03:37:41.098Z,99425.38
2022-12-11T03:40:14.556Z,99431.38
2022-12-11T03:42:45.056Z,99440.84
2022-12-11T03:45:15.260Z,99433.13
2022-12-11T03:47:45.514Z,99431.44
2022-12-11T03:50:17.306Z,99427.94
2022-12-11T03:52:46.713Z,99434.78
2022-12-11T03:55:17.856Z,99430.53
2022-12-11T03:57:45.858Z,99425.38
2022-12-11T04:00:17.079Z,99421.94
2022-12-11T04:02:45.241Z,99417.69
2022-12-11T04:05:13.731Z,99419.41
2022-12-11T04:07:41.813Z,99410.88
2022-12-11T04:10:10.039Z,99400.63
2022-12-11T04:12:37.822Z,99407.50
2022-12-11T04:15:06.189Z,99395.50
2022-12-11T04:17:55.290Z,99407.44
2022-12-11T04:20:41.822Z,99397.97
2022-12-11T04:23:36.508Z,99393.75
2022-12-11T04:26:10.154Z,99386.94
2022-12-11T04:28:38.180Z,99386.91
2022-12-11T04:31:06.464Z,99388.69
2022-12-11T04:33:34.271Z,99386.06
2022-12-11T04:36:02.231Z,99386.94
2022-12-11T04:38:29.983Z,99393.88
2022-12-11T04:41:17.312Z,99390.44
2022-12-11T04:43:45.511Z,99402.41
2022-12-11T04:46:16.554Z,99401.53
2022-12-11T04:48:44.985Z,99388.69
2022-12-11T04:51:13.311Z,99387.81
2022-12-11T04:53:41.806Z,99396.38
2022-12-11T04:56:12.245Z,99386.97
2022-12-11T04:58:41.866Z,99383.59
2022-12-11T05:01:18.147Z,99381.84
2022-12-11T05:03:46.386Z,99379.31
2022-12-11T05:06:15.066Z,99370.75
2022-12-11T05:08:45.196Z,99362.19
2022-12-11T05:11:15.480Z,99359.66
2022-12-11T05:13:44.011Z,99355.38
2022-12-11T05:16:15.043Z,99344.25
2022-12-11T05:18:43.226Z,99335.72
2022-12-11T05:21:13.618Z,99337.41
2022-12-11T05:23:42.251Z,99332.28
2022-12-11T05:26:20.040Z,99335.72
2022-12-11T05:28:51.367Z,99327.16
2022-12-11T05:31:23.123Z,99320.31
2022-12-11T05:33:52.018Z,99313.47
2022-12-11T05:36:29.966Z,99317.75
2022-12-11T05:38:59.133Z,99313.47
2022-12-11T05:41:28.966Z,99310.03
2022-12-11T05:43:56.841Z,99310.91
2022-12-11T05:46:30.068Z,99305.78
2022-12-11T05:49:01.544Z,99303.22
2022-12-11T05:51:30.525Z,99303.22
2022-12-11T05:53:58.666Z,99300.66
2022-12-11T05:56:30.155Z,99298.09
2022-12-11T05:58:58.786Z,99296.38
2022-12-11T06:01:30.758Z,99303.19
2022-12-11T06:03:59.436Z,99304.94
2022-12-11T06:06:28.179Z,99296.38
2022-12-11T06:08:57.991Z,99300.66
2022-12-11T06:11:29.897Z,99305.78
2022-12-11T06:13:58.220Z,99305.81
2022-12-11T06:16:26.221Z,99301.56
2022-12-11T06:18:57.999Z,99312.63
2022-12-11T06:21:30.095Z,99314.34
2022-12-11T06:24:00.913Z,99314.38
2022-12-11T06:26:29.595Z,99316.06
2022-12-11T06:28:57.335Z,99311.75
2022-12-11T06:31:25.349Z,99315.19
2022-12-11T06:33:53.056Z,99313.47
2022-12-11T06:36:22.657Z,99308.34
2022-12-11T06:38:50.518Z,99316.06
2022-12-11T06:41:18.700Z,99313.50
2022-12-11T06:43:46.608Z,99312.63
2022-12-11T06:46:18.257Z,99308.38
2022-12-11T06:48:47.257Z,99312.63
2022-12-11T06:51:18.366Z,99311.81
2022-12-11T06:53:51.147Z,99311.81
2022-12-11T06:56:19.220Z,99313.53
2022-12-11T06:58:47.452Z,99310.13
2022-12-11T07:01:21.881Z,99302.41
2022-12-11T07:03:52.281Z,99305.84
2022-12-11T07:06:20.277Z,99307.50
2022-12-11T07:08:48.192Z,99298.09
2022-12-11T07:11:17.858Z,99294.72
2022-12-11T07:13:46.284Z,99296.41
2022-12-11T07:16:15.890Z,99296.38
2022-12-11T07:18:49.252Z,99289.59
2022-12-11T07:21:17.615Z,99293.00
2022-12-11T07:23:45.313Z,99287.03
2022-12-11T07:26:17.165Z,99288.69
2022-12-11T07:28:45.499Z,99280.19
2022-12-11T07:31:16.202Z,99281.91
2022-12-11T07:33:44.284Z,99278.50
2022-12-11T07:36:14.533Z,99280.13
2022-12-11T07:38:42.598Z,99275.06
2022-12-11T07:41:13.147Z,99267.38
2022-12-11T07:43:41.483Z,99271.66
2022-12-11T07:46:19.716Z,99260.53
2022-12-11T07:48:48.788Z,99263.09
2022-12-11T07:51:25.056Z,99256.25
2022-12-11T07:53:55.608Z,99263.09
2022-12-11T07:56:24.148Z,99257.97
2022-12-11T07:58:52.141Z,99260.53
2022-12-11T08:01:26.097Z,99255.41
2022-12-11T08:03:55.050Z,99252.84
2022-12-11T08:06:29.989Z,99254.56
2022-12-11T08:08:59.930Z,99252.00
2022-12-11T08:11:28.758Z,99246.88
2022-12-11T08:13:59.287Z,99251.13
2022-12-11T08:16:28.260Z,99242.59
2022-12-11T08:18:56.057Z,99244.28
2022-12-11T08:21:27.587Z,99241.72
2022-12-11T08:23:56.132Z,99243.44
2022-12-11T08:26:28.534Z,99236.59
2022-12-11T08:28:57.075Z,99240.00
2022-12-11T08:31:25.662Z,99231.47
2022-12-11T08:33:55.127Z,99241.66
2022-12-11T08:36:24.525Z,99234.03
2022-12-11T08:38:53.828Z,99233.16
2022-12-11T08:41:31.189Z,99219.50
2022-12-11T08:44:00.538Z,99225.44
2022-12-11T08:46:31.969Z,99224.63
2022-12-11T08:49:00.120Z,99220.38
2022-12-11T08:51:30.348Z,99227.19
2022-12-11T08:54:00.880Z,99221.22
2022-12-11T08:56:30.343Z,99220.38
2022-12-11T08:59:01.213Z,99222.91
2022-12-11T09:01:29.645Z,99221.22
2022-12-11T09:03:58.320Z,99216.94
2022-12-11T09:06:28.197Z,99214.38
2022-12-11T09:08:58.423Z,99209.19
2022-12-11T09:11:30.326Z,99212.56
2022-12-11T09:14:03.538Z,99212.56
2022-12-11T09:16:37.855Z,99205.75
2022-12-11T09:19:06.615Z,99207.53
2022-12-11T09:21:34.831Z,99199.75
2022-12-11T09:24:02.942Z,99183.53
2022-12-11T09:26:31.247Z,99189.50
2022-12-11T09:28:59.438Z,99174.91
2022-12-11T09:31:33.737Z,99174.06
2022-12-11T09:34:05.056Z,99168.94
2022-12-11T09:36:33.661Z,99156.16
2022-12-11T09:39:03.892Z,99156.16
2022-12-11T09:41:40.433Z,99147.63
2022-12-11T09:44:23.938Z,99148.47
2022-12-11T09:46:52.306Z,99146.66
2022-12-11T09:49:42.939Z,99138.97
2022-12-11T09:52:40.003Z,99128.75
2022-12-11T09:55:25.663Z,99129.53
2022-12-11T09:58:14.568Z,99126.16
2022-12-11T10:00:47.463Z,99115.97
2022-12-11T10:03:48.604Z,99109.91
2022-12-11T10:06:25.506Z,99113.31
2022-12-11T10:09:05.587Z,99121.97
2022-12-11T10:11:59.094Z,99116.00
2022-12-11T10:14:37.036Z,99099.84
2022-12-11T10:17:30.938Z,99100.72
2022-12-11T10:20:03.591Z,99095.56
2022-12-11T10:22:33.976Z,99094.72
2022-12-11T10:25:13.022Z,99092.91
2022-12-11T10:27:41.612Z,99087.75
2022-12-11T10:30:18.695Z,99086.94
2022-12-11T10:33:07.448Z,99081.03
2022-12-11T10:35:55.021Z,99082.66
2022-12-11T10:38:33.069Z,99079.19
2022-12-11T10:41:02.390Z,99077.47
2022-12-11T10:43:35.876Z,99071.59
2022-12-11T10:46:05.102Z,99072.41
2022-12-11T10:48:33.376Z,99068.94
2022-12-11T10:51:07.225Z,99057.72
2022-12-11T10:53:35.297Z,99056.00
2022-12-11T10:56:03.483Z,99043.28
2022-12-11T10:58:34.285Z,99049.47
2022-12-11T11:01:15.123Z,99043.41
2022-12-11T11:04:15.483Z,99034.91
2022-12-11T11:06:43.971Z,99035.78
2022-12-11T11:09:32.113Z,99027.16
2022-12-11T11:12:03.117Z,99015.97
2022-12-11T11:14:35.278Z,99017.66
2022-12-11T11:17:03.277Z,99021.19
2022-12-11T11:19:35.248Z,99010.09
2022-12-11T11:22:08.658Z,99010.97
2022-12-11T11:24:39.605Z,99008.38
2022-12-11T11:27:25.101Z,98999.88
2022-12-11T11:30:02.452Z,99002.50
2022-12-11T11:32:39.901Z,99001.56
2022-12-11T11:35:13.941Z,99005.06
2022-12-11T11:37:53.424Z,98997.38
2022-12-11T11:40:30.469Z,98995.66
2022-12-11T11:43:29.507Z,98997.28
2022-12-11T11:46:04.521Z,99004.16
2022-12-11T11:49:06.320Z,98990.50
2022-12-11T11:51:45.273Z,98981.94
2022-12-11T11:54:39.359Z,98983.66
2022-12-11T11:57:32.347Z,98988.00
2022-12-11T12:00:10.835Z,98981.97
2022-12-11T12:02:42.568Z,98992.22
2022-12-11T12:05:14.013Z,98992.19
2022-12-11T12:07:44.616Z,98988.00
2022-12-11T12:10:26.551Z,98987.03
2022-12-11T12:13:48.595Z,98974.19
2022-12-11T12:16:52.625Z,98982.00
2022-12-11T12:19:36.088Z,98984.66
2022-12-11T12:22:19.716Z,98971.72
2022-12-11T12:25:22.047Z,98980.16
2022-12-11T12:28:12.920Z,98975.91
2022-12-11T12:31:16.087Z,98978.50
2022-12-11T12:34:37.344Z,98971.69
2022-12-11T12:37:15.177Z,98970.84
2022-12-11T12:40:19.911Z,98967.38
2022-12-11T12:42:59.248Z,98964.66
2022-12-11T12:45:38.213Z,98964.75
2022-12-11T12:48:07.677Z,98968.28
2022-12-11T12:50:43.610Z,98964.81
2022-12-11T12:53:19.652Z,98965.72
2022-12-11T12:55:49.653Z,98973.41
2022-12-11T12:58:29.587Z,98967.34
2022-12-11T13:01:30.298Z,98960.44
2022-12-11T13:04:03.096Z,98960.38
2022-12-11T13:06:38.722Z,98953.72
2022-12-11T13:09:18.675Z,98950.28
2022-12-11T13:11:53.531Z,98940.00
2022-12-11T13:14:21.291Z,98938.31
2022-12-11T13:17:04.556Z,98944.25
2022-12-11T13:19:39.076Z,98948.50
2022-12-11T13:22:13.748Z,98950.22
2022-12-11T13:24:59.667Z,98946.78
2022-12-11T13:27:41.753Z,98940.84
2022-12-11T13:30:15.607Z,98951.19
2022-12-11T13:32:53.627Z,98951.25
2022-12-11T13:35:21.456Z,98957.97
2022-12-11T13:37:52.188Z,98957.97
2022-12-11T13:40:24.103Z,98954.69
2022-12-11T13:43:29.990Z,98954.69
2022-12-11T13:46:04.203Z,98953.84
2022-12-11T13:48:43.700Z,98957.25
2022-12-11T13:51:21.948Z,98959.03
2022-12-11T13:54:01.712Z,98951.34
2022-12-11T13:56:29.439Z,98941.94
2022-12-11T13:58:57.427Z,98943.56
2022-12-11T14:01:29.144Z,98936.81
2022-12-11T14:04:04.809Z,98937.56
2022-12-11T14:06:34.780Z,98933.19
2022-12-11T14:09:05.498Z,98936.69
2022-12-11T14:11:42.311Z,98945.28
2022-12-11T14:14:29.341Z,98941.03
2022-12-11T14:16:57.299Z,98944.53
2022-12-11T14:19:25.384Z,98929.09
2022-12-11T14:22:01.084Z,98929.03
2022-12-11T14:24:30.462Z,98932.53
2022-12-11T14:26:58.956Z,98931.78
2022-12-11T14:29:32.298Z,98919.88
2022-12-11T14:32:06.411Z,98927.44
2022-12-11T14:34:44.366Z,98920.66
2022-12-11T14:37:15.932Z,98905.34
2022-12-11T14:40:07.398Z,98928.38
2022-12-11T14:42:41.007Z,98918.91
2022-12-11T14:45:24.395Z,98921.50
2022-12-11T14:47:54.452Z,98907.00
2022-12-11T14:50:31.147Z,98909.59
2022-12-11T14:53:04.240Z,98913.91
2022-12-11T14:55:37.556Z,98911.25
2022-12-11T14:58:14.965Z,98911.25
2022-12-11T15:00:42.973Z,98912.13
2022-12-11T15:03:16.415Z,98912.13
2022-12-11T15:05:54.570Z,98912.19
2022-12-11T15:08:36.971Z,98914.72
2022-12-11T15:11:11.103Z,98907.94
2022-12-11T15:13:55.674Z,98916.41
2022-12-11T15:16:26.860Z,98918.97
2022-12-11T15:18:56.132Z,98932.63
2022-12-11T15:21:33.933Z,98934.41
2022-12-11T15:24:05.397Z,98930.94
2022-12-11T15:26:46.392Z,98939.50
2022-12-11T15:29:46.718Z,98931.78
2022-12-11T15:32:20.309Z,98932.66
2022-12-11T15:34:56.849Z,98936.09
2022-12-11T15:37:33.768Z,98936.94
2022-12-11T15:40:03.330Z,98933.59
2022-12-11T15:42:43.786Z,98928.50
2022-12-11T15:45:20.809Z,98931.81
2022-12-11T15:47:50.709Z,98935.22
2022-12-11T15:50:24.736Z,98932.69
2022-12-11T15:52:54.978Z,98931.81
2022-12-11T15:55:25.737Z,98932.66
2022-12-11T15:57:53.881Z,98921.50
2022-12-11T16:00:24.004Z,98931.78
2022-12-11T16:02:52.188Z,98917.38
2022-12-11T16:05:22.899Z,98915.63
2022-12-11T16:07:52.366Z,98916.47
2022-12-11T16:10:21.803Z,98911.41
2022-12-11T16:12:50.209Z,98906.16
2022-12-11T16:15:23.635Z,98908.78
2022-12-11T16:18:07.648Z,98913.09
2022-12-11T16:20:37.349Z,98904.50
2022-12-11T16:23:05.956Z,98913.91
2022-12-11T16:25:33.977Z,98908.84
2022-12-11T16:28:02.644Z,98905.47
2022-12-11T16:30:31.079Z,98900.38
2022-12-11T16:32:59.069Z,98896.97
2022-12-11T16:35:26.793Z,98905.53
2022-12-11T16:37:55.407Z,98906.38
2022-12-11T16:40:24.202Z,98906.38
2022-12-11T16:42:52.936Z,98908.88
2022-12-11T16:45:23.637Z,98908.91
2022-12-11T16:47:52.492Z,98907.22
2022-12-11T16:50:20.909Z,98914.03
2022-12-11T16:52:49.295Z,98914.91
2022-12-11T16:55:21.081Z,98920.84
2022-12-11T16:57:49.304Z,98925.13
2022-12-11T17:00:17.485Z,98929.38
2022-12-11T17:02:45.506Z,98934.50
2022-12-11T17:05:13.985Z,98932.75
2022-12-11T17:07:43.304Z,98927.66
2022-12-11T17:10:11.128Z,98920.00
2022-12-11T17:12:39.207Z,98926.00
2022-12-11T17:15:07.442Z,98929.41
2022-12-11T17:17:35.415Z,98925.97
2022-12-11T17:20:03.434Z,98921.63
2022-12-11T17:22:31.555Z,98915.69
2022-12-11T17:24:59.364Z,98915.72
2022-12-11T17:27:27.579Z,98903.78
2022-12-11T17:29:55.274Z,98906.19
2022-12-11T17:32:23.179Z,98915.63
2022-12-11T17:34:51.032Z,98918.28
2022-12-11T17:37:20.168Z,98914.03
2022-12-11T17:39:47.927Z,98914.91
2022-12-11T17:42:15.898Z,98911.50
2022-12-11T17:44:45.458Z,98906.44
2022-12-11T17:47:13.969Z,98908.94
2022-12-11T17:49:41.799Z,98910.59
2022-12-11T17:52:09.808Z,98905.50
2022-12-11T17:54:39.238Z,98917.44
2022-12-11T17:57:07.588Z,98920.84
2022-12-11T17:59:35.372Z,98931.94
2022-12-11T18:02:03.528Z,98926.81
2022-12-11T18:04:31.395Z,98932.78
2022-12-11T18:06:59.393Z,98931.09
2022-12-11T18:09:27.166Z,98939.66
2022-12-11T18:11:55.096Z,98941.34
2022-12-11T18:14:23.276Z,98941.34
2022-12-11T18:16:52.623Z,98937.03
2022-12-11T18:19:20.363Z,98935.34
2022-12-11T18:21:48.969Z,98929.34
2022-12-11T18:24:16.684Z,98926.00
2022-12-11T18:26:44.894Z,98918.31
2022-12-11T18:29:12.696Z,98919.16
2022-12-11T18:31:42.787Z,98917.44
2022-12-11T18:34:11.546Z,98917.47
2022-12-11T18:36:40.791Z,98909.72
2022-12-11T18:39:08.730Z,98925.13
2022-12-11T18:41:36.723Z,98925.97
2022-12-11T18:44:09.517Z,98919.16
2022-12-11T18:46:39.588Z,98912.34
2022-12-11T18:49:07.436Z,98914.06
2022-12-11T18:51:35.987Z,98911.47
2022-12-11T18:54:03.954Z,98901.25
2022-12-11T18:56:32.208Z,98894.38
2022-12-11T18:58:59.932Z,98896.13
2022-12-11T19:01:29.651Z,98895.28
2022-12-11T19:04:04.202Z,98898.72
2022-12-11T19:06:35.612Z,98897.81
2022-12-11T19:09:05.552Z,98899.50
2022-12-11T19:11:35.333Z,98891.81
2022-12-11T19:14:05.858Z,98887.56
2022-12-11T19:16:40.287Z,98891.88
2022-12-11T19:19:20.064Z,98891.84
2022-12-11T19:21:49.669Z,98886.75
2022-12-11T19:24:20.875Z,98890.16
2022-12-11T19:26:49.435Z,98888.44
2022-12-11T19:29:21.943Z,98882.44
2022-12-11T19:31:49.961Z,98876.50
2022-12-11T19:34:18.594Z,98876.56
2022-12-11T19:36:46.655Z,98874.81
2022-12-11T19:39:14.663Z,98879.88
2022-12-11T19:41:43.349Z,98885.03
2022-12-11T19:44:11.582Z,98890.13
2022-12-11T19:46:39.942Z,98891.00
2022-12-11T19:49:07.849Z,98893.56
2022-12-11T19:51:38.816Z,98890.97
2022-12-11T19:54:12.726Z,98902.06
2022-12-11T19:56:40.934Z,98896.97
2022-12-11T19:59:14.053Z,98900.38
2022-12-11T20:01:42.588Z,98903.72
2022-12-11T20:04:13.630Z,98902.91
2022-12-11T20:06:44.198Z,98897.81
2022-12-11T20:09:13.319Z,98896.97
2022-12-11T20:11:43.982Z,98891.84
2022-12-11T20:14:19.972Z,98890.19
2022-12-11T20:19:36.359Z,98886.69
2022-12-11T20:22:04.632Z,98890.16
2022-12-11T20:24:32.635Z,98893.56
2022-12-11T20:27:00.643Z,98897.84
2022-12-11T20:29:29.120Z,98902.06
2022-12-11T20:31:59.733Z,98897.75
2022-12-11T20:34:28.005Z,98889.25
2022-12-11T20:36:56.408Z,98891.88
2022-12-11T20:39:24.425Z,98896.13
2022-12-11T20:41:52.492Z,98891.88
2022-12-11T20:44:20.488Z,98883.31
2022-12-11T20:46:48.742Z,98876.50
2022-12-11T20:49:16.586Z,98880.78
2022-12-11T20:51:44.534Z,98891.81
2022-12-11T20:54:13.163Z,98902.09
2022-12-11T20:56:41.120Z,98894.41
2022-12-11T20:59:09.969Z,98898.63
2022-12-11T21:01:37.993Z,98900.34
2022-12-11T21:04:05.914Z,98890.97
2022-12-11T21:06:36.673Z,98890.13
2022-12-11T21:09:15.763Z,98884.94
2022-12-11T21:11:44.058Z,98883.31
2022-12-11T21:14:11.745Z,98881.59
2022-12-11T21:16:40.479Z,98881.59
2022-12-11T21:19:12.452Z,98879.06
2022-12-11T21:21:45.423Z,98890.16
2022-12-11T21:24:16.202Z,98890.16
2022-12-11T21:26:44.837Z,98890.09
2022-12-11T21:29:13.321Z,98891.72
2022-12-11T21:31:42.991Z,98885.84
2022-12-11T21:34:11.289Z,98891.00
2022-12-11T21:36:39.521Z,98890.16
2022-12-11T21:39:08.388Z,98875.66
2022-12-11T21:41:36.617Z,98894.25
2022-12-11T21:46:52.723Z,98893.53
2022-12-11T21:49:20.826Z,98892.69
2022-12-11T21:51:50.135Z,98895.25
2022-12-11T21:54:19.535Z,98894.34
2022-12-11T21:56:47.958Z,98902.06
2022-12-11T21:59:17.153Z,98905.47
2022-12-11T22:01:46.274Z,98898.66
2022-12-11T22:04:15.164Z,98905.44
2022-12-11T22:06:43.702Z,98906.28
2022-12-11T22:09:13.203Z,98901.88
2022-12-11T22:11:43.031Z,98895.13
2022-12-11T22:14:13.963Z,98893.50
2022-12-11T22:16:43.085Z,98900.38
2022-12-11T22:19:11.049Z,98905.47
2022-12-11T22:21:39.313Z,98907.06
2022-12-11T22:24:07.431Z,98908.72
2022-12-11T22:26:35.512Z,98913.91
2022-12-11T22:29:03.957Z,98914.75
2022-12-11T22:31:32.662Z,98908.84
2022-12-11T22:34:00.649Z,98909.63
2022-12-11T22:36:28.927Z,98903.66
2022-12-11T22:38:56.660Z,98905.38
2022-12-11T22:41:31.277Z,98885.00
2022-12-11T22:43:59.440Z,98899.47
2022-12-11T22:46:29.731Z,98902.06
2022-12-11T22:48:58.764Z,98896.88
2022-12-11T22:51:26.999Z,98893.50
2022-12-11T22:53:54.831Z,98885.00
2022-12-11T22:56:22.897Z,98888.44
2022-12-11T22:58:51.156Z,98888.41
2022-12-11T23:01:23.412Z,98896.91
2022-12-11T23:03:52.027Z,98892.63
2022-12-11T23:06:22.642Z,98890.09
2022-12-11T23:08:51.027Z,98892.66
2022-12-11T23:11:24.314Z,98890.94
2022-12-11T23:13:52.873Z,98899.47
2022-12-11T23:16:22.118Z,98895.13
2022-12-11T23:18:50.199Z,98895.13
2022-12-11T23:21:18.543Z,98891.69
2022-12-11T23:23:46.837Z,98897.69
2022-12-11T23:26:16.614Z,98891.66
2022-12-11T23:28:44.684Z,98886.69
2022-12-11T23:31:13.456Z,98887.56
2022-12-11T23:33:41.557Z,98895.22
2022-12-11T23:36:10.597Z,98885.03
2022-12-11T23:38:39.164Z,98899.50
2022-12-11T23:41:09.713Z,98910.59
2022-12-11T23:43:38.402Z,98901.09
2022-12-11T23:46:10.440Z,98896.81
2022-12-11T23:48:38.346Z,98893.41
2022-12-11T23:51:07.060Z,98891.69
2022-12-11T23:53:35.244Z,98886.66
2022-12-11T23:56:15.738Z,98881.56
2022-12-11T23:58:43.614Z,98876.31
